EPSC

Szczecin-Goleniów "Solidarność" Airport

Goleniow, Poland
METAR EPSC 161030Z 24006KT 7000 FEW006 BKN007 02/01 Q1002 R13/CLRD//
Observed Flight Rules
Dec-16 @ 10:30 UTC (30 minutes ago) Instrument Flight Rules
Wind Visibility Clouds
240° at 6 knots 7,001 meters
  • Few at 600' AGL
  • Broken at 700' AGL
Temperatures Readings
Current 2°C / 36°F
Dewpoint 1°C / 34°F
Humidity 93%
Altimeter 29.59" Hg
Pressure 1002 hPa
Elevation 47
METAR EPSC 161030Z 24006KT 7000 FEW006 BKN007 02/01 Q1002 R13/CLRD//
Observed Flight Rules
Dec-16 @ 10:30 UTC
(30 minutes ago)
IFR
Wind Visibility
240° at 6 knots 7,001 meters
Clouds
  • Few at 600' AGL
  • Broken at 700' AGL
Temperature Dewpoint
2°C / 36°F 1°C / 34°F
Humidity Altimeter Pressure
93% 29.59" Hg 1002 hPa